sensor_id;sensor_type;location;lat;lon;timestamp;pressure;altitude;pressure_sealevel;temperature;humidity
788;BME280;16074;42.708;23.312;2023-05-02T00:01:32;141431.06;;;12.92;90.68
788;BME280;16074;42.708;23.312;2023-05-02T00:04:02;141456.44;;;13.03;89.52
788;BME280;16074;42.708;23.312;2023-05-02T00:06:31;141468.47;;;13.07;89.34
788;BME280;16074;42.708;23.312;2023-05-02T00:08:59;141462.44;;;13.05;89.67
788;BME280;16074;42.708;23.312;2023-05-02T00:11:27;141485.34;;;13.14;88.91
788;BME280;16074;42.708;23.312;2023-05-02T00:13:55;141504.69;;;13.22;88.46
788;BME280;16074;42.708;23.312;2023-05-02T00:16:24;141503.50;;;13.22;88.84
788;BME280;16074;42.708;23.312;2023-05-02T00:18:54;141472.09;;;13.09;89.91
788;BME280;16074;42.708;23.312;2023-05-02T00:21:22;141478.13;;;13.11;90.22
788;BME280;16074;42.708;23.312;2023-05-02T00:23:51;141502.25;;;13.21;89.12
788;BME280;16074;42.708;23.312;2023-05-02T00:26:19;141528.84;;;13.32;88.20
788;BME280;16074;42.708;23.312;2023-05-02T00:28:47;141526.41;;;13.31;88.45
788;BME280;16074;42.708;23.312;2023-05-02T00:31:15;141546.91;;;13.40;88.03
788;BME280;16074;42.708;23.312;2023-05-02T00:33:44;141537.25;;;13.36;87.99
788;BME280;16074;42.708;23.312;2023-05-02T00:36:14;141555.41;;;13.43;87.55
788;BME280;16074;42.708;23.312;2023-05-02T00:38:43;141552.97;;;13.42;87.28
788;BME280;16074;42.708;23.312;2023-05-02T00:41:12;141556.59;;;13.44;87.14
788;BME280;16074;42.708;23.312;2023-05-02T00:43:40;141556.59;;;13.44;87.41
788;BME280;16074;42.708;23.312;2023-05-02T00:46:08;141531.25;;;13.33;87.78
788;BME280;16074;42.708;23.312;2023-05-02T00:48:38;141557.81;;;13.44;87.38
788;BME280;16074;42.708;23.312;2023-05-02T00:51:07;141538.50;;;13.36;87.88
788;BME280;16074;42.708;23.312;2023-05-02T00:53:39;141556.59;;;13.44;87.94
788;BME280;16074;42.708;23.312;2023-05-02T00:56:07;141543.31;;;13.38;88.16
788;BME280;16074;42.708;23.312;2023-05-02T00:58:37;141534.84;;;13.35;88.74
788;BME280;16074;42.708;23.312;2023-05-02T01:01:21;141536.06;;;13.35;89.04
788;BME280;16074;42.708;23.312;2023-05-02T01:04:12;141531.25;;;13.33;89.46
788;BME280;16074;42.708;23.312;2023-05-02T01:06:54;141544.50;;;13.39;89.40
788;BME280;16074;42.708;23.312;2023-05-02T01:09:38;141540.91;;;13.37;89.36
788;BME280;16074;42.708;23.312;2023-05-02T01:12:14;141544.50;;;13.39;89.28
788;BME280;16074;42.708;23.312;2023-05-02T01:14:46;141533.66;;;13.34;89.85
788;BME280;16074;42.708;23.312;2023-05-02T01:17:18;141536.06;;;13.35;89.96
788;BME280;16074;42.708;23.312;2023-05-02T01:19:50;141525.22;;;13.31;90.09
788;BME280;16074;42.708;23.312;2023-05-02T01:22:20;141531.25;;;13.33;90.24
788;BME280;16074;42.708;23.312;2023-05-02T01:25:00;141517.97;;;13.28;90.74
788;BME280;16074;42.708;23.312;2023-05-02T01:27:38;141519.16;;;13.28;90.58
788;BME280;16074;42.708;23.312;2023-05-02T01:30:10;141475.69;;;13.10;92.35
788;BME280;16074;42.708;23.312;2023-05-02T01:32:40;141479.34;;;13.12;92.43
788;BME280;16074;42.708;23.312;2023-05-02T01:35:14;141467.28;;;13.07;93.38
788;BME280;16074;42.708;23.312;2023-05-02T01:37:44;141461.22;;;13.05;93.60
788;BME280;16074;42.708;23.312;2023-05-02T01:40:16;141438.31;;;12.95;94.76
788;BME280;16074;42.708;23.312;2023-05-02T01:42:46;141467.28;;;13.07;94.12
788;BME280;16074;42.708;23.312;2023-05-02T01:45:17;141445.53;;;12.98;94.86
788;BME280;16074;42.708;23.312;2023-05-02T01:47:46;141440.72;;;12.96;95.12
788;BME280;16074;42.708;23.312;2023-05-02T01:50:18;141445.53;;;12.98;95.27
788;BME280;16074;42.708;23.312;2023-05-02T01:52:49;141437.13;;;12.95;95.72
788;BME280;16074;42.708;23.312;2023-05-02T01:55:18;141445.53;;;12.98;95.50
788;BME280;16074;42.708;23.312;2023-05-02T01:57:47;141438.31;;;12.95;95.52
788;BME280;16074;42.708;23.312;2023-05-02T02:00:19;141444.34;;;12.98;95.58
788;BME280;16074;42.708;23.312;2023-05-02T02:02:50;141420.16;;;12.88;96.38
788;BME280;16074;42.708;23.312;2023-05-02T02:05:21;141432.28;;;12.93;96.53
788;BME280;16074;42.708;23.312;2023-05-02T02:07:51;141416.53;;;12.86;96.57
788;BME280;16074;42.708;23.312;2023-05-02T02:10:19;141403.28;;;12.81;98.10
788;BME280;16074;42.708;23.312;2023-05-02T02:12:53;141388.78;;;12.75;98.27
788;BME280;16074;42.708;23.312;2023-05-02T02:15:27;141399.63;;;12.79;98.29
788;BME280;16074;42.708;23.312;2023-05-02T02:17:58;141374.31;;;12.69;98.91
788;BME280;16074;42.708;23.312;2023-05-02T02:20:28;141379.13;;;12.71;99.53
788;BME280;16074;42.708;23.312;2023-05-02T02:22:59;141351.41;;;12.59;100.00
788;BME280;16074;42.708;23.312;2023-05-02T02:25:30;141362.22;;;12.64;100.00
788;BME280;16074;42.708;23.312;2023-05-02T02:28:00;141370.69;;;12.67;100.00
788;BME280;16074;42.708;23.312;2023-05-02T02:30:30;141363.47;;;12.64;100.00
788;BME280;16074;42.708;23.312;2023-05-02T02:32:58;141365.88;;;12.65;100.00
788;BME280;16074;42.708;23.312;2023-05-02T02:35:32;141356.22;;;12.61;100.00
788;BME280;16074;42.708;23.312;2023-05-02T02:38:10;141353.81;;;12.60;100.00
788;BME280;16074;42.708;23.312;2023-05-02T02:40:44;141329.69;;;12.50;100.00
788;BME280;16074;42.708;23.312;2023-05-02T02:43:19;141334.50;;;12.52;100.00
788;BME280;16074;42.708;23.312;2023-05-02T02:45:58;141322.44;;;12.47;100.00
788;BME280;16074;42.708;23.312;2023-05-02T02:48:34;141326.03;;;12.49;100.00
788;BME280;16074;42.708;23.312;2023-05-02T02:51:17;141323.63;;;12.48;100.00
788;BME280;16074;42.708;23.312;2023-05-02T02:53:56;141317.59;;;12.45;100.00
788;BME280;16074;42.708;23.312;2023-05-02T02:56:39;141299.53;;;12.38;100.00
788;BME280;16074;42.708;23.312;2023-05-02T02:59:13;141304.38;;;12.40;100.00
788;BME280;16074;42.708;23.312;2023-05-02T03:01:47;141304.38;;;12.40;100.00
788;BME280;16074;42.708;23.312;2023-05-02T03:04:20;141309.19;;;12.42;100.00
788;BME280;16074;42.708;23.312;2023-05-02T03:06:50;141311.59;;;12.43;100.00
788;BME280;16074;42.708;23.312;2023-05-02T03:09:18;141299.53;;;12.38;100.00
788;BME280;16074;42.708;23.312;2023-05-02T03:11:49;141299.53;;;12.38;100.00
788;BME280;16074;42.708;23.312;2023-05-02T03:14:17;141298.31;;;12.37;100.00
788;BME280;16074;42.708;23.312;2023-05-02T03:16:47;141301.94;;;12.39;100.00
788;BME280;16074;42.708;23.312;2023-05-02T03:19:17;141298.31;;;12.37;100.00
788;BME280;16074;42.708;23.312;2023-05-02T03:21:45;141291.06;;;12.34;100.00
788;BME280;16074;42.708;23.312;2023-05-02T03:24:17;141270.59;;;12.26;100.00
788;BME280;16074;42.708;23.312;2023-05-02T03:26:47;141277.81;;;12.29;100.00
788;BME280;16074;42.708;23.312;2023-05-02T03:29:21;141268.16;;;12.25;100.00
788;BME280;16074;42.708;23.312;2023-05-02T03:31:51;141254.88;;;12.19;100.00
788;BME280;16074;42.708;23.312;2023-05-02T03:34:21;141240.44;;;12.13;100.00
788;BME280;16074;42.708;23.312;2023-05-02T03:36:51;141227.16;;;12.08;100.00
788;BME280;16074;42.708;23.312;2023-05-02T03:39:20;141217.50;;;12.04;100.00
788;BME280;16074;42.708;23.312;2023-05-02T03:41:48;141248.88;;;12.17;100.00
788;BME280;16074;42.708;23.312;2023-05-02T03:44:19;141230.78;;;12.09;100.00
788;BME280;16074;42.708;23.312;2023-05-02T03:46:47;141245.28;;;12.15;100.00
788;BME280;16074;42.708;23.312;2023-05-02T03:49:17;141271.75;;;12.26;100.00
788;BME280;16074;42.708;23.312;2023-05-02T03:51:47;141277.81;;;12.29;100.00
788;BME280;16074;42.708;23.312;2023-05-02T03:54:21;141277.81;;;12.29;100.00
788;BME280;16074;42.708;23.312;2023-05-02T03:56:52;141279.00;;;12.29;100.00
788;BME280;16074;42.708;23.312;2023-05-02T03:59:28;141289.88;;;12.34;100.00
788;BME280;16074;42.708;23.312;2023-05-02T04:02:01;141288.66;;;12.33;100.00
788;BME280;16074;42.708;23.312;2023-05-02T04:04:39;141299.53;;;12.38;100.00
788;BME280;16074;42.708;23.312;2023-05-02T04:07:10;141299.53;;;12.38;100.00
788;BME280;16074;42.708;23.312;2023-05-02T04:09:46;141315.19;;;12.44;100.00
788;BME280;16074;42.708;23.312;2023-05-02T04:12:15;141318.84;;;12.46;100.00
788;BME280;16074;42.708;23.312;2023-05-02T04:14:47;141339.31;;;12.54;100.00
788;BME280;16074;42.708;23.312;2023-05-02T04:17:15;141342.91;;;12.56;100.00
788;BME280;16074;42.708;23.312;2023-05-02T04:19:48;141341.75;;;12.55;100.00
788;BME280;16074;42.708;23.312;2023-05-02T04:22:19;141329.69;;;12.50;100.00
788;BME280;16074;42.708;23.312;2023-05-02T04:24:58;141338.09;;;12.54;100.00
788;BME280;16074;42.708;23.312;2023-05-02T04:27:27;141324.84;;;12.48;100.00
788;BME280;16074;42.708;23.312;2023-05-02T04:29:56;141317.59;;;12.45;100.00
788;BME280;16074;42.708;23.312;2023-05-02T04:32:25;141303.13;;;12.39;100.00
788;BME280;16074;42.708;23.312;2023-05-02T04:34:57;141334.50;;;12.52;100.00
788;BME280;16074;42.708;23.312;2023-05-02T04:37:25;141327.25;;;12.49;100.00
788;BME280;16074;42.708;23.312;2023-05-02T04:39:54;141341.75;;;12.55;100.00
788;BME280;16074;42.708;23.312;2023-05-02T04:42:25;141356.22;;;12.61;100.00
788;BME280;16074;42.708;23.312;2023-05-02T04:45:00;141362.22;;;12.64;99.91
788;BME280;16074;42.708;23.312;2023-05-02T04:47:28;141371.88;;;12.68;98.51
788;BME280;16074;42.708;23.312;2023-05-02T04:49:58;141408.09;;;12.83;96.95
788;BME280;16074;42.708;23.312;2023-05-02T04:52:29;141420.16;;;12.88;96.14
788;BME280;16074;42.708;23.312;2023-05-02T04:54:58;141416.53;;;12.86;95.81
788;BME280;16074;42.708;23.312;2023-05-02T04:57:27;141400.84;;;12.80;95.66
788;BME280;16074;42.708;23.312;2023-05-02T04:59:57;141412.94;;;12.85;95.14
788;BME280;16074;42.708;23.312;2023-05-02T05:02:27;141433.47;;;12.93;95.25
788;BME280;16074;42.708;23.312;2023-05-02T05:05:00;141444.34;;;12.98;94.02
788;BME280;16074;42.708;23.312;2023-05-02T05:07:29;141451.59;;;13.01;93.08
788;BME280;16074;42.708;23.312;2023-05-02T05:09:57;141445.53;;;12.98;93.03
788;BME280;16074;42.708;23.312;2023-05-02T05:12:31;141474.53;;;13.10;91.37
788;BME280;16074;42.708;23.312;2023-05-02T05:14:59;141481.75;;;13.13;90.99
788;BME280;16074;42.708;23.312;2023-05-02T05:17:29;141480.53;;;13.12;89.93
788;BME280;16074;42.708;23.312;2023-05-02T05:20:00;141492.59;;;13.17;89.17
788;BME280;16074;42.708;23.312;2023-05-02T05:22:29;141507.09;;;13.23;89.29
788;BME280;16074;42.708;23.312;2023-05-02T05:24:57;141511.94;;;13.25;88.67
788;BME280;16074;42.708;23.312;2023-05-02T05:27:29;141525.22;;;13.31;88.45
788;BME280;16074;42.708;23.312;2023-05-02T05:29:58;141532.44;;;13.34;84.82
788;BME280;16074;42.708;23.312;2023-05-02T05:32:27;141528.84;;;13.32;84.06
788;BME280;16074;42.708;23.312;2023-05-02T05:34:56;141539.69;;;13.37;83.25
788;BME280;16074;42.708;23.312;2023-05-02T05:37:27;141543.31;;;13.38;81.76
788;BME280;16074;42.708;23.312;2023-05-02T05:39:57;141550.56;;;13.41;82.25
788;BME280;16074;42.708;23.312;2023-05-02T05:42:26;141581.97;;;13.54;81.52
788;BME280;16074;42.708;23.312;2023-05-02T05:44:59;141579.56;;;13.53;81.51
788;BME280;16074;42.708;23.312;2023-05-02T05:47:29;141619.38;;;13.70;79.99
788;BME280;16074;42.708;23.312;2023-05-02T05:49:58;141636.31;;;13.77;78.46
788;BME280;16074;42.708;23.312;2023-05-02T05:52:31;141633.88;;;13.76;78.48
788;BME280;16074;42.708;23.312;2023-05-02T05:55:01;141629.06;;;13.74;77.83
788;BME280;16074;42.708;23.312;2023-05-02T05:57:30;141667.66;;;13.90;77.93
788;BME280;16074;42.708;23.312;2023-05-02T05:59:59;141687.00;;;13.98;76.37
788;BME280;16074;42.708;23.312;2023-05-02T06:02:30;141712.41;;;14.08;75.35
788;BME280;16074;42.708;23.312;2023-05-02T06:04:59;141722.06;;;14.12;75.31
788;BME280;16074;42.708;23.312;2023-05-02T06:07:27;141739.00;;;14.19;74.22
788;BME280;16074;42.708;23.312;2023-05-02T06:09:57;141753.50;;;14.25;74.46
788;BME280;16074;42.708;23.312;2023-05-02T06:12:27;141769.22;;;14.32;74.10
788;BME280;16074;42.708;23.312;2023-05-02T06:14:56;141784.91;;;14.38;73.62
788;BME280;16074;42.708;23.312;2023-05-02T06:17:24;141789.75;;;14.40;72.95
788;BME280;16074;42.708;23.312;2023-05-02T06:19:52;141815.13;;;14.50;72.97
788;BME280;16074;42.708;23.312;2023-05-02T06:22:21;141851.38;;;14.65;71.78
788;BME280;16074;42.708;23.312;2023-05-02T06:24:49;141857.44;;;14.68;71.40
788;BME280;16074;42.708;23.312;2023-05-02T06:27:18;141855.03;;;14.67;71.13
788;BME280;16074;42.708;23.312;2023-05-02T06:29:49;141867.13;;;14.72;71.81
788;BME280;16074;42.708;23.312;2023-05-02T06:32:18;141905.78;;;14.88;69.69
788;BME280;16074;42.708;23.312;2023-05-02T06:34:47;141921.50;;;14.94;67.74
788;BME280;16074;42.708;23.312;2023-05-02T06:37:15;141956.56;;;15.09;65.37
788;BME280;16074;42.708;23.312;2023-05-02T06:39:44;141978.34;;;15.18;65.04
788;BME280;16074;42.708;23.312;2023-05-02T06:42:12;141998.88;;;15.26;64.28
788;BME280;16074;42.708;23.312;2023-05-02T06:44:42;142029.16;;;15.39;63.18
788;BME280;16074;42.708;23.312;2023-05-02T06:47:10;142035.22;;;15.41;61.87
788;BME280;16074;42.708;23.312;2023-05-02T06:49:38;142071.53;;;15.56;60.80
788;BME280;16074;42.708;23.312;2023-05-02T06:52:06;142077.56;;;15.58;60.75
788;BME280;16074;42.708;23.312;2023-05-02T06:54:35;142123.53;;;15.77;60.61
788;BME280;16074;42.708;23.312;2023-05-02T06:57:05;142159.81;;;15.92;61.39
788;BME280;16074;42.708;23.312;2023-05-02T06:59:34;142199.78;;;16.09;61.51
788;BME280;16074;42.708;23.312;2023-05-02T07:02:03;142225.19;;;16.19;59.76
788;BME280;16074;42.708;23.312;2023-05-02T07:04:32;142261.53;;;16.34;58.52
788;BME280;16074;42.708;23.312;2023-05-02T07:07:00;142322.06;;;16.59;56.20
788;BME280;16074;42.708;23.312;2023-05-02T07:09:29;142335.41;;;16.65;56.21
788;BME280;16074;42.708;23.312;2023-05-02T07:11:57;142402.00;;;16.92;55.47
788;BME280;16074;42.708;23.312;2023-05-02T07:14:26;142506.22;;;17.35;53.72
788;BME280;16074;42.708;23.312;2023-05-02T07:16:55;142570.44;;;17.61;53.27
788;BME280;16074;42.708;23.312;2023-05-02T07:19:24;142595.88;;;17.72;51.69
788;BME280;16074;42.708;23.312;2023-05-02T07:21:53;142598.28;;;17.73;51.25
788;BME280;16074;42.708;23.312;2023-05-02T07:24:21;142641.94;;;17.91;50.35
788;BME280;16074;42.708;23.312;2023-05-02T07:26:49;142655.25;;;17.96;49.96
788;BME280;16074;42.708;23.312;2023-05-02T07:29:17;142688.03;;;18.09;49.91
788;BME280;16074;42.708;23.312;2023-05-02T07:31:45;142786.25;;;18.50;48.28
788;BME280;16074;42.708;23.312;2023-05-02T07:34:14;142808.09;;;18.59;48.28
788;BME280;16074;42.708;23.312;2023-05-02T07:36:43;142842.06;;;18.73;47.58
788;BME280;16074;42.708;23.312;2023-05-02T07:39:12;142902.75;;;18.98;46.81
788;BME280;16074;42.708;23.312;2023-05-02T07:41:40;142908.78;;;19.00;46.64
788;BME280;16074;42.708;23.312;2023-05-02T07:44:08;142923.34;;;19.06;47.00
788;BME280;16074;42.708;23.312;2023-05-02T07:46:36;142969.53;;;19.25;46.24
788;BME280;16074;42.708;23.312;2023-05-02T07:49:05;142962.25;;;19.22;46.78
788;BME280;16074;42.708;23.312;2023-05-02T07:51:33;142996.19;;;19.36;45.50
788;BME280;16074;42.708;23.312;2023-05-02T07:54:14;142999.84;;;19.37;45.38
788;BME280;16074;42.708;23.312;2023-05-02T07:56:42;143016.84;;;19.44;45.29
788;BME280;16074;42.708;23.312;2023-05-02T07:59:11;143128.53;;;19.90;44.17
788;BME280;16074;42.708;23.312;2023-05-02T08:01:39;143156.50;;;20.02;43.91
788;BME280;16074;42.708;23.312;2023-05-02T08:04:08;143190.50;;;20.16;43.89
788;BME280;16074;42.708;23.312;2023-05-02T08:06:37;143146.72;;;19.98;43.63
788;BME280;16074;42.708;23.312;2023-05-02T08:09:07;143167.44;;;20.06;44.17
788;BME280;16074;42.708;23.312;2023-05-02T08:11:35;143225.72;;;20.30;43.57
788;BME280;16074;42.708;23.312;2023-05-02T08:14:03;143258.50;;;20.43;42.96
788;BME280;16074;42.708;23.312;2023-05-02T08:16:31;143360.66;;;20.85;41.96
788;BME280;16074;42.708;23.312;2023-05-02T08:19:00;143406.81;;;21.04;41.79
788;BME280;16074;42.708;23.312;2023-05-02T08:21:28;143440.84;;;21.18;41.88
788;BME280;16074;42.708;23.312;2023-05-02T08:23:58;143446.97;;;21.21;41.48
788;BME280;16074;42.708;23.312;2023-05-02T08:26:28;143512.59;;;21.48;40.79
788;BME280;16074;42.708;23.312;2023-05-02T08:28:56;143474.91;;;21.32;40.75
788;BME280;16074;42.708;23.312;2023-05-02T08:31:24;143571.03;;;21.72;39.80
788;BME280;16074;42.708;23.312;2023-05-02T08:33:53;143573.44;;;21.73;39.72
788;BME280;16074;42.708;23.312;2023-05-02T08:36:21;143583.19;;;21.76;39.49
788;BME280;16074;42.708;23.312;2023-05-02T08:38:50;143616.00;;;21.90;39.36
788;BME280;16074;42.708;23.312;2023-05-02T08:41:18;143637.91;;;21.99;39.39
788;BME280;16074;42.708;23.312;2023-05-02T08:43:48;143574.63;;;21.73;39.54
788;BME280;16074;42.708;23.312;2023-05-02T08:46:16;143710.88;;;22.29;39.38
788;BME280;16074;42.708;23.312;2023-05-02T08:48:45;143751.06;;;22.45;37.92
788;BME280;16074;42.708;23.312;2023-05-02T08:51:16;143827.75;;;22.77;37.83
788;BME280;16074;42.708;23.312;2023-05-02T08:53:45;143871.59;;;22.94;37.38
788;BME280;16074;42.708;23.312;2023-05-02T08:56:14;143841.16;;;22.82;37.48
788;BME280;16074;42.708;23.312;2023-05-02T08:58:42;143870.38;;;22.94;37.59
788;BME280;16074;42.708;23.312;2023-05-02T09:01:12;143880.09;;;22.98;37.39
788;BME280;16074;42.708;23.312;2023-05-02T09:03:43;143849.66;;;22.86;37.55
788;BME280;16074;42.708;23.312;2023-05-02T09:06:12;143920.34;;;23.14;36.31
788;BME280;16074;42.708;23.312;2023-05-02T09:08:43;143984.88;;;23.41;36.43
788;BME280;16074;42.708;23.312;2023-05-02T09:11:12;143982.44;;;23.40;35.88
788;BME280;16074;42.708;23.312;2023-05-02T09:13:41;143853.34;;;22.87;36.90
788;BME280;16074;42.708;23.312;2023-05-02T09:16:11;143927.66;;;23.17;36.07
788;BME280;16074;42.708;23.312;2023-05-02T09:18:41;143994.63;;;23.45;35.55
788;BME280;16074;42.708;23.312;2023-05-02T09:21:11;144022.63;;;23.56;35.90
788;BME280;16074;42.708;23.312;2023-05-02T09:23:42;144150.56;;;24.09;34.45
788;BME280;16074;42.708;23.312;2023-05-02T09:26:12;144211.53;;;24.33;34.28
788;BME280;16074;42.708;23.312;2023-05-02T09:28:42;144285.91;;;24.64;33.01
788;BME280;16074;42.708;23.312;2023-05-02T09:31:13;144255.47;;;24.51;33.69
788;BME280;16074;42.708;23.312;2023-05-02T09:34:07;144288.38;;;24.65;33.33
788;BME280;16074;42.708;23.312;2023-05-02T09:36:38;144306.63;;;24.72;33.30
788;BME280;16074;42.708;23.312;2023-05-02T09:39:08;144136.00;;;24.03;33.74
788;BME280;16074;42.708;23.312;2023-05-02T09:41:40;144065.25;;;23.74;34.18
788;BME280;16074;42.708;23.312;2023-05-02T09:44:10;144045.75;;;23.66;34.71
788;BME280;16074;42.708;23.312;2023-05-02T09:46:40;144082.38;;;23.81;34.17
788;BME280;16074;42.708;23.312;2023-05-02T09:49:09;144128.69;;;24.00;33.62
788;BME280;16074;42.708;23.312;2023-05-02T09:51:37;144126.25;;;23.99;33.68
788;BME280;16074;42.708;23.312;2023-05-02T09:54:06;144154.25;;;24.10;33.55
788;BME280;16074;42.708;23.312;2023-05-02T09:56:52;144116.50;;;23.95;33.81
788;BME280;16074;42.708;23.312;2023-05-02T09:59:23;144127.44;;;23.99;33.56
788;BME280;16074;42.708;23.312;2023-05-02T10:01:57;144110.38;;;23.92;33.53
788;BME280;16074;42.708;23.312;2023-05-02T10:04:26;144118.94;;;23.96;33.71
788;BME280;16074;42.708;23.312;2023-05-02T10:06:56;143941.03;;;23.23;34.11
788;BME280;16074;42.708;23.312;2023-05-02T10:09:25;143939.84;;;23.22;34.18
788;BME280;16074;42.708;23.312;2023-05-02T10:11:55;144010.44;;;23.51;34.14
788;BME280;16074;42.708;23.312;2023-05-02T10:14:24;144025.06;;;23.57;33.59
788;BME280;16074;42.708;23.312;2023-05-02T10:17:00;144044.56;;;23.65;33.17
788;BME280;16074;42.708;23.312;2023-05-02T10:19:31;144018.94;;;23.55;33.79
788;BME280;16074;42.708;23.312;2023-05-02T10:22:03;144070.13;;;23.76;33.71
788;BME280;16074;42.708;23.312;2023-05-02T10:24:32;143947.09;;;23.25;33.53
788;BME280;16074;42.708;23.312;2023-05-02T10:27:03;143926.41;;;23.17;33.66
788;BME280;16074;42.708;23.312;2023-05-02T10:29:31;144044.56;;;23.65;33.33
788;BME280;16074;42.708;23.312;2023-05-02T10:32:02;144068.94;;;23.75;33.17
788;BME280;16074;42.708;23.312;2023-05-02T10:34:31;144148.19;;;24.08;33.20
788;BME280;16074;42.708;23.312;2023-05-02T10:37:00;144320.06;;;24.78;32.69
788;BME280;16074;42.708;23.312;2023-05-02T10:39:29;144557.97;;;25.75;31.07
788;BME280;16074;42.708;23.312;2023-05-02T10:42:01;144741.09;;;26.50;29.37
788;BME280;16074;42.708;23.312;2023-05-02T10:44:33;144754.56;;;26.55;29.65
788;BME280;16074;42.708;23.312;2023-05-02T10:49:58;144794.84;;;26.72;29.54
788;BME280;16074;42.708;23.312;2023-05-02T10:52:28;144798.50;;;26.73;29.32
788;BME280;16074;42.708;23.312;2023-05-02T10:55:15;144825.38;;;26.84;29.29
788;BME280;16074;42.708;23.312;2023-05-02T10:58:21;144984.22;;;27.49;28.55
788;BME280;16074;42.708;23.312;2023-05-02T11:00:50;145108.91;;;27.99;28.28
788;BME280;16074;42.708;23.312;2023-05-02T11:03:53;145192.06;;;28.33;27.08
788;BME280;16074;42.708;23.312;2023-05-02T11:06:24;145188.41;;;28.32;27.07
788;BME280;16074;42.708;23.312;2023-05-02T11:08:52;145217.78;;;28.44;27.14
788;BME280;16074;42.708;23.312;2023-05-02T11:11:42;145205.53;;;28.39;27.06
788;BME280;16074;42.708;23.312;2023-05-02T11:14:11;145278.91;;;28.69;27.07
788;BME280;16074;42.708;23.312;2023-05-02T11:17:08;145185.97;;;28.31;27.42
788;BME280;16074;42.708;23.312;2023-05-02T11:22:49;145041.69;;;27.72;28.13
788;BME280;16074;42.708;23.312;2023-05-02T11:25:44;144961.03;;;27.39;28.23
788;BME280;16074;42.708;23.312;2023-05-02T11:28:43;144992.75;;;27.52;27.86
788;BME280;16074;42.708;23.312;2023-05-02T11:34:43;144961.03;;;27.39;28.44
788;BME280;16074;42.708;23.312;2023-05-02T11:37:12;145003.78;;;27.57;28.79
788;BME280;16074;42.708;23.312;2023-05-02T11:39:42;145017.19;;;27.62;27.50
788;BME280;16074;42.708;23.312;2023-05-02T11:42:26;144914.59;;;27.20;28.45
788;BME280;16074;42.708;23.312;2023-05-02T11:44:56;144941.47;;;27.31;28.22
788;BME280;16074;42.708;23.312;2023-05-02T11:47:26;144990.31;;;27.51;28.27
788;BME280;16074;42.708;23.312;2023-05-02T11:49:56;145020.88;;;27.64;28.08
788;BME280;16074;42.708;23.312;2023-05-02T11:52:26;145110.16;;;28.00;28.32
788;BME280;16074;42.708;23.312;2023-05-02T11:54:56;145216.53;;;28.43;27.83
788;BME280;16074;42.708;23.312;2023-05-02T11:57:24;145225.13;;;28.47;27.47
788;BME280;16074;42.708;23.312;2023-05-02T11:59:56;145320.53;;;28.86;27.52
788;BME280;16074;42.708;23.312;2023-05-02T12:02:34;145354.81;;;29.00;26.53
788;BME280;16074;42.708;23.312;2023-05-02T12:05:04;145381.72;;;29.11;27.12
788;BME280;16074;42.708;23.312;2023-05-02T12:07:34;145370.69;;;29.06;26.66
788;BME280;16074;42.708;23.312;2023-05-02T12:10:06;145507.78;;;29.62;26.93
788;BME280;16074;42.708;23.312;2023-05-02T12:12:35;145475.94;;;29.49;26.42
788;BME280;16074;42.708;23.312;2023-05-02T12:15:05;145521.25;;;29.67;26.23
788;BME280;16074;42.708;23.312;2023-05-02T12:17:36;145412.28;;;29.23;26.48
788;BME280;16074;42.708;23.312;2023-05-02T12:20:06;145318.09;;;28.85;26.95
788;BME280;16074;42.708;23.312;2023-05-02T12:22:36;145226.31;;;28.47;27.03
788;BME280;16074;42.708;23.312;2023-05-02T12:25:07;145307.06;;;28.80;26.39
788;BME280;16074;42.708;23.312;2023-05-02T12:27:35;145297.28;;;28.76;26.83
788;BME280;16074;42.708;23.312;2023-05-02T12:30:05;145282.59;;;28.70;26.66
788;BME280;16074;42.708;23.312;2023-05-02T12:32:34;145260.56;;;28.61;26.95
788;BME280;16074;42.708;23.312;2023-05-02T12:35:04;145309.50;;;28.81;26.81
788;BME280;16074;42.708;23.312;2023-05-02T12:37:33;145321.78;;;28.86;26.24
788;BME280;16074;42.708;23.312;2023-05-02T12:40:02;145310.69;;;28.82;26.22
788;BME280;16074;42.708;23.312;2023-05-02T12:42:32;145384.16;;;29.12;26.07
788;BME280;16074;42.708;23.312;2023-05-02T12:45:01;145386.63;;;29.13;25.82
788;BME280;16074;42.708;23.312;2023-05-02T12:47:43;145347.47;;;28.97;25.72
788;BME280;16074;42.708;23.312;2023-05-02T12:50:12;145456.34;;;29.41;25.16
788;BME280;16074;42.708;23.312;2023-05-02T12:52:48;145573.88;;;29.89;24.95
788;BME280;16074;42.708;23.312;2023-05-02T12:55:17;145523.72;;;29.68;24.66
788;BME280;16074;42.708;23.312;2023-05-02T12:57:47;145586.13;;;29.94;24.38
788;BME280;16074;42.708;23.312;2023-05-02T13:00:16;145495.53;;;29.57;24.95
788;BME280;16074;42.708;23.312;2023-05-02T13:02:44;145539.59;;;29.75;24.50
788;BME280;16074;42.708;23.312;2023-05-02T13:05:13;145611.88;;;30.04;24.88
788;BME280;16074;42.708;23.312;2023-05-02T13:07:41;145615.53;;;30.06;24.37
788;BME280;16074;42.708;23.312;2023-05-02T13:10:10;145678.00;;;30.31;23.98
788;BME280;16074;42.708;23.312;2023-05-02T13:12:39;145644.91;;;30.18;23.59
788;BME280;16074;42.708;23.312;2023-05-02T13:15:10;145572.66;;;29.88;24.32
788;BME280;16074;42.708;23.312;2023-05-02T13:17:38;145477.19;;;29.49;24.70
788;BME280;16074;42.708;23.312;2023-05-02T13:20:07;145390.25;;;29.14;24.69
788;BME280;16074;42.708;23.312;2023-05-02T13:22:36;145310.69;;;28.82;24.83
788;BME280;16074;42.708;23.312;2023-05-02T13:25:06;145363.34;;;29.03;24.79
788;BME280;16074;42.708;23.312;2023-05-02T13:27:35;145365.78;;;29.04;24.72